sensor_id;sensor_type;location;lat;lon;timestamp;temperature;humidity
15615;DHT22;7907;51.368;6.730;2023-04-03T14:36:32;23.30;34.40
15615;DHT22;7907;51.368;6.730;2023-04-03T14:39:33;23.10;33.50
15615;DHT22;7907;51.368;6.730;2023-04-03T14:59:13;24.90;32.00
15615;DHT22;7907;51.368;6.730;2023-04-03T19:35:15;7.80;54.30
15615;DHT22;7907;51.368;6.730;2023-04-03T19:38:21;7.80;54.50
15615;DHT22;7907;51.368;6.730;2023-04-03T19:41:10;7.70;54.70
15615;DHT22;7907;51.368;6.730;2023-04-03T19:47:15;7.60;55.00
15615;DHT22;7907;51.368;6.730;2023-04-03T19:53:28;7.50;55.40
15615;DHT22;7907;51.368;6.730;2023-04-03T19:56:50;7.40;55.70
15615;DHT22;7907;51.368;6.730;2023-04-03T20:02:57;7.30;56.20
15615;DHT22;7907;51.368;6.730;2023-04-03T20:05:46;7.20;56.30
15615;DHT22;7907;51.368;6.730;2023-04-03T20:12:01;7.10;56.80
15615;DHT22;7907;51.368;6.730;2023-04-03T20:17:52;7.10;57.90
15615;DHT22;7907;51.368;6.730;2023-04-03T20:20:41;7.00;57.60
15615;DHT22;7907;51.368;6.730;2023-04-03T20:23:14;6.90;57.70
15615;DHT22;7907;51.368;6.730;2023-04-03T20:26:23;6.90;58.00
15615;DHT22;7907;51.368;6.730;2023-04-03T20:28:53;6.80;58.20
15615;DHT22;7907;51.368;6.730;2023-04-03T20:31:45;6.80;58.30
15615;DHT22;7907;51.368;6.730;2023-04-03T20:38:07;6.70;58.70
15615;DHT22;7907;51.368;6.730;2023-04-03T20:40:58;6.60;58.60
15615;DHT22;7907;51.368;6.730;2023-04-03T21:38:12;5.70;62.90
15615;DHT22;7907;51.368;6.730;2023-04-03T21:58:40;5.70;64.10
15615;DHT22;7907;51.368;6.730;2023-04-03T22:01:30;5.40;65.40
15615;DHT22;7907;51.368;6.730;2023-04-03T22:04:24;5.30;65.50
15615;DHT22;7907;51.368;6.730;2023-04-03T22:07:13;5.30;66.80
15615;DHT22;7907;51.368;6.730;2023-04-03T22:10:20;5.20;68.40
15615;DHT22;7907;51.368;6.730;2023-04-03T22:12:55;5.10;69.30
15615;DHT22;7907;51.368;6.730;2023-04-03T22:15:45;5.10;69.70
15615;DHT22;7907;51.368;6.730;2023-04-03T22:18:18;5.00;70.70
15615;DHT22;7907;51.368;6.730;2023-04-03T22:20:53;4.90;73.20
15615;DHT22;7907;51.368;6.730;2023-04-03T22:23:38;4.90;73.90
15615;DHT22;7907;51.368;6.730;2023-04-03T22:26:17;4.90;75.00
15615;DHT22;7907;51.368;6.730;2023-04-03T22:28:59;4.90;76.50
15615;DHT22;7907;51.368;6.730;2023-04-03T22:31:40;4.80;79.40
15615;DHT22;7907;51.368;6.730;2023-04-03T22:34:16;4.70;79.70
15615;DHT22;7907;51.368;6.730;2023-04-03T22:37:10;4.60;82.30
15615;DHT22;7907;51.368;6.730;2023-04-03T22:39:59;4.60;88.30
15615;DHT22;7907;51.368;6.730;2023-04-03T22:42:45;4.60;88.90
15615;DHT22;7907;51.368;6.730;2023-04-03T22:45:30;4.50;92.10
15615;DHT22;7907;51.368;6.730;2023-04-03T22:48:32;4.40;93.80
15615;DHT22;7907;51.368;6.730;2023-04-03T22:51:08;4.40;94.10
15615;DHT22;7907;51.368;6.730;2023-04-03T22:53:58;4.30;93.90
15615;DHT22;7907;51.368;6.730;2023-04-03T22:56:33;4.30;93.10
15615;DHT22;7907;51.368;6.730;2023-04-03T23:01:53;4.20;94.30
15615;DHT22;7907;51.368;6.730;2023-04-03T23:05:01;4.10;94.20
15615;DHT22;7907;51.368;6.730;2023-04-03T23:07:45;4.10;94.80
15615;DHT22;7907;51.368;6.730;2023-04-03T23:10:56;4.00;95.70
15615;DHT22;7907;51.368;6.730;2023-04-03T23:13:56;4.00;96.40
15615;DHT22;7907;51.368;6.730;2023-04-03T23:16:52;3.90;97.40
15615;DHT22;7907;51.368;6.730;2023-04-03T23:29:42;3.70;99.90
15615;DHT22;7907;51.368;6.730;2023-04-03T23:35:32;3.60;99.90
15615;DHT22;7907;51.368;6.730;2023-04-03T23:38:31;3.60;99.90
15615;DHT22;7907;51.368;6.730;2023-04-03T23:41:24;3.50;99.90
15615;DHT22;7907;51.368;6.730;2023-04-03T23:44:17;3.50;99.90
15615;DHT22;7907;51.368;6.730;2023-04-03T23:47:15;3.40;99.90
15615;DHT22;7907;51.368;6.730;2023-04-03T23:50:04;3.40;99.90
15615;DHT22;7907;51.368;6.730;2023-04-03T23:52:42;3.40;99.90
15615;DHT22;7907;51.368;6.730;2023-04-03T23:55:28;3.30;99.90
15615;DHT22;7907;51.368;6.730;2023-04-03T23:58:06;3.30;99.90
